Time;durP1;ratioP1;P1;durP2;ratioP2;P2;SDS_P1;SDS_P2;PMS_P1;PMS_P2;Temp;Humidity;BMP_temperature;BMP_pressure;BME280_temperature;BME280_humidity;BME280_pressure;Samples;Min_cycle;Max_cycle;Signal;HPM_P1;HPM_P2
2023/11/06 06:01:35;;;;;;;4.83;2.17;;;;;;;;;;5437853;23;20494;-72
2023/11/06 06:04:01;;;;;;;3.13;1.97;;;;;;;;;;4995459;28;20422;-73
2023/11/06 06:06:27;;;;;;;2.60;1.77;;;;;;;;;;4977116;28;20906;-73
2023/11/06 06:08:53;;;;;;;3.80;1.60;;;;;;;;;;4994681;28;20431;-73
2023/11/06 06:11:19;;;;;;;2.80;1.60;;;;;;;;;;4994310;28;20478;-73
2023/11/06 06:13:46;;;;;;;1.83;1.40;;;;;;;;;;4995000;28;20407;-73
2023/11/06 06:16:12;;;;;;;7.03;1.77;;;;;;;;;;5017221;23;20490;-70
2023/11/06 06:18:38;;;;;;;5.00;1.80;;;;;;;;;;4994233;28;20758;-70
2023/11/06 06:21:04;;;;;;;3.20;1.63;;;;;;;;;;4994090;28;20410;-71
2023/11/06 06:23:30;;;;;;;4.60;1.83;;;;;;;;;;4993960;28;20474;-70
2023/11/06 06:25:56;;;;;;;4.00;1.70;;;;;;;;;;4993149;28;20474;-71
2023/11/06 06:28:22;;;;;;;7.10;1.87;;;;;;;;;;4993801;28;20462;-70
2023/11/06 06:30:48;;;;;;;11.53;3.23;;;;;;;;;;4993720;28;20473;-70
2023/11/06 06:33:14;;;;;;;11.60;2.30;;;;;;;;;;4976247;28;20941;-70
2023/11/06 06:35:40;;;;;;;4.23;2.10;;;;;;;;;;4993732;28;20431;-70
2023/11/06 06:38:06;;;;;;;5.10;1.93;;;;;;;;;;4993486;28;20520;-70
2023/11/06 06:40:32;;;;;;;8.63;2.80;;;;;;;;;;4994171;28;20434;-70
2023/11/06 06:42:58;;;;;;;1.90;1.60;;;;;;;;;;4984927;28;20428;-70
2023/11/06 06:45:24;;;;;;;1.50;1.37;;;;;;;;;;4973989;28;20497;-70
2023/11/06 06:47:50;;;;;;;8.57;1.50;;;;;;;;;;4974080;28;20411;-70
2023/11/06 06:50:16;;;;;;;6.50;1.80;;;;;;;;;;4974201;28;20404;-70
2023/11/06 06:52:42;;;;;;;6.17;1.47;;;;;;;;;;4973968;28;20470;-71
2023/11/06 06:55:08;;;;;;;8.37;1.97;;;;;;;;;;4993593;28;20447;-71
2023/11/06 06:57:34;;;;;;;2.43;1.40;;;;;;;;;;4993531;28;20903;-70
2023/11/06 07:00:00;;;;;;;4.80;1.57;;;;;;;;;;4991543;28;20469;-71
2023/11/06 07:02:26;;;;;;;3.70;2.10;;;;;;;;;;4992342;28;20442;-71
2023/11/06 07:04:51;;;;;;;3.33;2.13;;;;;;;;;;4993237;28;20410;-70
2023/11/06 07:07:17;;;;;;;3.90;1.60;;;;;;;;;;4992838;28;20454;-71
2023/11/06 07:09:44;;;;;;;2.70;1.37;;;;;;;;;;4992528;28;20919;-70
2023/11/06 07:12:10;;;;;;;3.47;1.53;;;;;;;;;;4992830;28;21109;-71
2023/11/06 07:14:37;;;;;;;1.67;1.20;;;;;;;;;;4993178;28;20418;-71
2023/11/06 07:17:04;;;;;;;1.60;1.23;;;;;;;;;;4993113;28;20451;-72
2023/11/06 07:19:31;;;;;;;4.40;1.57;;;;;;;;;;4992829;28;20414;-72
2023/11/06 07:21:57;;;;;;;1.93;1.30;;;;;;;;;;4992439;28;20459;-72
2023/11/06 07:24:26;;;;;;;4.67;1.67;;;;;;;;;;4992844;28;20415;-71
2023/11/06 07:26:52;;;;;;;2.23;1.30;;;;;;;;;;4992540;28;20470;-72
2023/11/06 07:29:18;;;;;;;3.30;1.60;;;;;;;;;;4992635;28;20406;-71
2023/11/06 07:31:44;;;;;;;4.67;1.50;;;;;;;;;;4992373;28;20578;-72
2023/11/06 07:34:10;;;;;;;2.80;1.70;;;;;;;;;;4984320;28;20430;-72
2023/11/06 07:36:36;;;;;;;4.40;2.43;;;;;;;;;;4980643;28;20443;-72
2023/11/06 07:39:02;;;;;;;5.90;2.60;;;;;;;;;;4982691;28;20415;-72
2023/11/06 07:41:28;;;;;;;4.97;2.23;;;;;;;;;;4992306;28;20501;-72
2023/11/06 07:43:54;;;;;;;5.10;2.10;;;;;;;;;;4990448;28;20851;-72
2023/11/06 07:46:20;;;;;;;6.90;1.90;;;;;;;;;;4972998;28;20803;-68
2023/11/06 07:48:47;;;;;;;9.00;2.70;;;;;;;;;;4976672;28;20435;-69
2023/11/06 07:51:14;;;;;;;6.03;3.10;;;;;;;;;;4991025;28;20469;-70
2023/11/06 07:53:40;;;;;;;7.60;2.50;;;;;;;;;;4987033;28;20424;-71
2023/11/06 07:56:09;;;;;;;5.13;2.13;;;;;;;;;;4972817;28;21043;-71
2023/11/06 07:58:35;;;;;;;10.87;2.33;;;;;;;;;;4979108;28;20922;-70
2023/11/06 08:01:01;;;;;;;4.83;2.50;;;;;;;;;;4990679;28;20488;-72
2023/11/06 08:03:27;;;;;;;2.37;1.60;;;;;;;;;;4992189;28;20422;-69
2023/11/06 08:05:54;;;;;;;10.23;2.17;;;;;;;;;;4991652;28;20451;-69
2023/11/06 08:08:20;;;;;;;3.00;1.70;;;;;;;;;;4981853;28;20526;-69
2023/11/06 08:10:46;;;;;;;3.00;1.70;;;;;;;;;;4985629;28;20434;-69
2023/11/06 08:13:12;;;;;;;3.10;1.67;;;;;;;;;;4998537;28;20422;-69
2023/11/06 08:15:38;;;;;;;4.70;1.67;;;;;;;;;;4993607;28;20958;-69
2023/11/06 08:18:05;;;;;;;3.53;1.87;;;;;;;;;;4962426;28;20427;-71
2023/11/06 08:20:31;;;;;;;4.83;1.60;;;;;;;;;;4996528;28;20917;-70
2023/11/06 08:22:57;;;;;;;5.47;2.00;;;;;;;;;;4978793;28;20428;-70
2023/11/06 08:25:26;;;;;;;7.93;2.30;;;;;;;;;;4982743;28;20454;-70
2023/11/06 08:27:55;;;;;;;4.53;1.87;;;;;;;;;;4979585;28;20412;-70
2023/11/06 08:30:23;;;;;;;4.27;2.23;;;;;;;;;;4997470;28;20418;-71
2023/11/06 08:32:48;;;;;;;4.30;2.03;;;;;;;;;;4996801;28;20469;-70
2023/11/06 08:35:14;;;;;;;3.73;1.30;;;;;;;;;;4980142;28;20439;-71
2023/11/06 08:37:40;;;;;;;7.57;1.40;;;;;;;;;;4997888;28;20510;-70
2023/11/06 08:40:07;;;;;;;2.00;1.37;;;;;;;;;;4996105;28;20539;-70
2023/11/06 08:42:33;;;;;;;5.33;1.50;;;;;;;;;;4996137;28;20857;-70
2023/11/06 08:44:59;;;;;;;6.73;1.57;;;;;;;;;;4997674;28;20424;-70
2023/11/06 08:47:25;;;;;;;6.07;1.80;;;;;;;;;;4993142;28;20486;-70
2023/11/06 08:49:51;;;;;;;8.17;1.87;;;;;;;;;;4979825;28;20842;-70
2023/11/06 08:52:17;;;;;;;10.37;2.53;;;;;;;;;;4978517;28;20463;-69
2023/11/06 08:54:45;;;;;;;1.73;1.30;;;;;;;;;;4990719;28;20454;-70
2023/11/06 08:57:12;;;;;;;10.80;1.70;;;;;;;;;;4997781;28;20446;-71
2023/11/06 08:59:38;;;;;;;4.60;1.50;;;;;;;;;;4998347;28;20902;-71
2023/11/06 09:02:04;;;;;;;2.57;1.37;;;;;;;;;;4992193;28;20428;-70
2023/11/06 09:04:30;;;;;;;1.90;0.93;;;;;;;;;;4988449;28;20430;-71
2023/11/06 09:06:56;;;;;;;2.80;1.30;;;;;;;;;;4986812;28;20454;-71
2023/11/06 09:09:22;;;;;;;13.00;1.40;;;;;;;;;;4986893;28;20913;-71
2023/11/06 09:11:48;;;;;;;3.87;1.40;;;;;;;;;;4982685;28;20782;-71
2023/11/06 09:14:14;;;;;;;2.03;1.37;;;;;;;;;;4994606;28;20481;-71
2023/11/06 09:16:40;;;;;;;4.50;1.10;;;;;;;;;;4992641;28;20455;-71
2023/11/06 09:19:07;;;;;;;2.87;1.30;;;;;;;;;;4983725;28;20917;-70
2023/11/06 09:21:33;;;;;;;2.77;1.30;;;;;;;;;;4997873;28;20433;-70
2023/11/06 09:23:59;;;;;;;3.83;1.60;;;;;;;;;;4995121;28;20455;-70
2023/11/06 09:26:25;;;;;;;5.13;2.07;;;;;;;;;;4992939;28;20452;-70
2023/11/06 09:28:53;;;;;;;3.50;1.40;;;;;;;;;;4977970;28;20426;-70
2023/11/06 09:31:20;;;;;;;5.60;1.60;;;;;;;;;;4988166;28;20924;-70
2023/11/06 09:33:52;;;;;;;4.37;1.80;;;;;;;;;;4979875;28;20798;-70
2023/11/06 09:36:19;;;;;;;4.63;1.40;;;;;;;;;;4975326;28;20522;-70
2023/11/06 09:38:45;;;;;;;1.97;1.10;;;;;;;;;;4985610;28;20790;-71
2023/11/06 09:41:14;;;;;;;3.00;1.63;;;;;;;;;;4993923;28;20431;-70
2023/11/06 09:43:43;;;;;;;1.53;1.00;;;;;;;;;;4994411;28;20825;-70
2023/11/06 09:46:09;;;;;;;4.37;1.30;;;;;;;;;;4985966;28;20448;-69
2023/11/06 09:48:36;;;;;;;2.10;1.37;;;;;;;;;;4981810;28;20431;-71
2023/11/06 09:51:12;;;;;;;2.90;1.37;;;;;;;;;;4983508;28;20486;-71
2023/11/06 09:53:41;;;;;;;4.13;1.40;;;;;;;;;;4978912;28;20422;-70
2023/11/06 09:56:10;;;;;;;3.47;1.40;;;;;;;;;;5002752;28;20447;-70
2023/11/06 09:58:37;;;;;;;4.00;1.20;;;;;;;;;;4987643;28;20423;-70
2023/11/06 10:01:03;;;;;;;2.70;1.53;;;;;;;;;;4993573;28;20423;-70
2023/11/06 10:03:29;;;;;;;3.17;1.73;;;;;;;;;;4987092;28;20428;-71
2023/11/06 10:05:55;;;;;;;3.43;1.47;;;;;;;;;;4975153;28;20523;-72
2023/11/06 10:08:28;;;;;;;3.33;1.60;;;;;;;;;;4988647;28;20461;-70
2023/11/06 10:10:59;;;;;;;2.43;1.27;;;;;;;;;;4989827;28;20462;-70
2023/11/06 10:13:25;;;;;;;3.97;1.40;;;;;;;;;;4978596;28;20430;-70
2023/11/06 10:15:51;;;;;;;6.23;1.23;;;;;;;;;;4975234;28;20808;-72
2023/11/06 10:18:19;;;;;;;6.73;2.20;;;;;;;;;;4982296;28;20424;-71
2023/11/06 10:20:47;;;;;;;3.53;1.50;;;;;;;;;;4979948;28;20425;-72
2023/11/06 10:23:22;;;;;;;5.23;1.73;;;;;;;;;;4974574;28;20408;-71
2023/11/06 10:25:48;;;;;;;2.67;1.50;;;;;;;;;;4974362;28;20778;-72
2023/11/06 10:28:17;;;;;;;4.57;1.67;;;;;;;;;;4974184;28;20419;-72
2023/11/06 10:30:51;;;;;;;2.80;1.40;;;;;;;;;;4974153;28;20481;-72
2023/11/06 10:33:17;;;;;;;3.03;1.20;;;;;;;;;;4973863;28;20443;-71
2023/11/06 10:35:43;;;;;;;4.03;1.40;;;;;;;;;;4974377;28;20423;-72
2023/11/06 10:38:26;;;;;;;2.20;1.23;;;;;;;;;;4974363;28;20412;-72
2023/11/06 10:40:51;;;;;;;2.33;1.10;;;;;;;;;;4974318;28;20396;-71
2023/11/06 10:43:18;;;;;;;2.87;1.23;;;;;;;;;;4973985;28;20423;-71
2023/11/06 10:45:44;;;;;;;2.77;1.50;;;;;;;;;;4974423;28;20436;-71
2023/11/06 10:48:12;;;;;;;2.83;1.17;;;;;;;;;;4974116;28;20762;-71
2023/11/06 10:50:38;;;;;;;5.43;1.30;;;;;;;;;;4973887;28;20487;-71
2023/11/06 10:53:06;;;;;;;7.23;1.23;;;;;;;;;;4973687;28;20408;-71
2023/11/06 10:55:33;;;;;;;2.07;1.23;;;;;;;;;;4988750;28;20472;-71
2023/11/06 10:58:00;;;;;;;4.50;1.27;;;;;;;;;;4973860;28;20458;-71
2023/11/06 11:00:26;;;;;;;1.63;1.30;;;;;;;;;;4973836;28;20958;-71
2023/11/06 11:02:55;;;;;;;1.93;1.17;;;;;;;;;;4973752;28;20412;-71
2023/11/06 11:05:24;;;;;;;1.27;1.27;;;;;;;;;;4973482;28;20519;-71
2023/11/06 11:07:50;;;;;;;4.23;1.63;;;;;;;;;;4973831;28;20443;-71
2023/11/06 11:10:18;;;;;;;4.50;1.70;;;;;;;;;;4973663;28;20416;-72
2023/11/06 11:12:49;;;;;;;2.83;1.70;;;;;;;;;;4973469;28;20558;-73
2023/11/06 11:15:22;;;;;;;1.63;1.30;;;;;;;;;;4973679;28;20432;-72
2023/11/06 11:18:04;;;;;;;3.23;1.50;;;;;;;;;;4973635;28;20416;-73
2023/11/06 11:20:49;;;;;;;3.20;1.37;;;;;;;;;;4973875;28;20418;-71
2023/11/06 11:23:15;;;;;;;3.10;2.33;;;;;;;;;;4973388;28;20963;-69
2023/11/06 11:25:57;;;;;;;3.13;1.43;;;;;;;;;;4973541;28;20954;-69
2023/11/06 11:28:24;;;;;;;2.67;1.10;;;;;;;;;;4988184;28;20419;-71
2023/11/06 11:30:50;;;;;;;2.07;1.10;;;;;;;;;;4973371;28;20899;-71
2023/11/06 11:33:45;;;;;;;2.70;1.30;;;;;;;;;;4973172;28;20970;-71
2023/11/06 11:36:28;;;;;;;6.00;1.23;;;;;;;;;;4960590;28;20444;-71
2023/11/06 11:38:55;;;;;;;3.57;1.43;;;;;;;;;;4988037;28;20419;-71
2023/11/06 11:41:21;;;;;;;3.83;1.50;;;;;;;;;;4973091;28;20480;-71
2023/11/06 11:43:48;;;;;;;2.70;1.40;;;;;;;;;;4973326;28;20892;-71
2023/11/06 11:46:33;;;;;;;1.70;1.47;;;;;;;;;;4972687;28;20463;-72
2023/11/06 11:48:59;;;;;;;1.77;1.27;;;;;;;;;;4973031;28;20410;-71
2023/11/06 11:51:44;;;;;;;1.10;1.03;;;;;;;;;;4972971;28;20550;-71
2023/11/06 11:54:24;;;;;;;3.83;1.10;;;;;;;;;;4973196;28;20525;-71
2023/11/06 11:56:51;;;;;;;1.00;0.90;;;;;;;;;;4973157;28;20506;-71
2023/11/06 11:59:17;;;;;;;3.20;1.17;;;;;;;;;;4972860;28;20428;-71
2023/11/06 12:01:44;;;;;;;7.50;1.20;;;;;;;;;;4972525;28;20454;-72
2023/11/06 12:04:17;;;;;;;4.40;1.30;;;;;;;;;;4972997;28;20411;-72
2023/11/06 12:06:43;;;;;;;1.20;1.10;;;;;;;;;;4972666;28;20459;-72
2023/11/06 12:09:09;;;;;;;4.90;1.30;;;;;;;;;;4973116;28;20941;-69
2023/11/06 12:11:35;;;;;;;1.20;1.00;;;;;;;;;;4972839;28;20812;-70
2023/11/06 12:14:02;;;;;;;1.63;1.37;;;;;;;;;;4972818;28;20408;-70
2023/11/06 12:16:28;;;;;;;10.43;1.97;;;;;;;;;;4972931;28;20546;-70
2023/11/06 12:18:57;;;;;;;2.20;1.03;;;;;;;;;;4972768;28;20411;-71
2023/11/06 12:21:23;;;;;;;2.83;1.20;;;;;;;;;;4972413;28;20888;-71
2023/11/06 12:23:50;;;;;;;1.33;0.93;;;;;;;;;;4973078;28;20412;-71
2023/11/06 12:26:17;;;;;;;2.70;1.60;;;;;;;;;;4972772;28;20495;-71
2023/11/06 12:28:50;;;;;;;4.80;1.93;;;;;;;;;;4973002;28;20412;-71
2023/11/06 12:31:16;;;;;;;2.50;0.90;;;;;;;;;;4972654;28;20467;-71
2023/11/06 12:33:42;;;;;;;4.83;1.43;;;;;;;;;;4972653;28;20460;-71
2023/11/06 12:36:25;;;;;;;1.43;1.10;;;;;;;;;;4972736;28;20467;-71
2023/11/06 12:38:51;;;;;;;1.57;1.10;;;;;;;;;;4972517;28;20434;-71
2023/11/06 12:41:27;;;;;;;2.47;1.23;;;;;;;;;;4972265;28;20504;-71
2023/11/06 12:43:53;;;;;;;1.50;1.10;;;;;;;;;;4972765;28;20414;-71
2023/11/06 12:46:19;;;;;;;3.50;1.43;;;;;;;;;;4972321;28;20438;-71
2023/11/06 12:48:46;;;;;;;3.40;1.70;;;;;;;;;;4972295;28;20415;-71
2023/11/06 12:51:14;;;;;;;1.10;1.00;;;;;;;;;;4972456;28;20455;-71
2023/11/06 12:53:40;;;;;;;1.80;0.97;;;;;;;;;;4987436;28;20420;-72
2023/11/06 12:56:06;;;;;;;2.00;1.00;;;;;;;;;;4972596;28;20775;-72
2023/11/06 12:58:35;;;;;;;1.60;0.87;;;;;;;;;;4975974;28;20408;-72
2023/11/06 13:01:02;;;;;;;1.10;0.90;;;;;;;;;;4976225;28;20479;-71
2023/11/06 13:03:29;;;;;;;0.80;0.80;;;;;;;;;;4976106;28;20430;-72
2023/11/06 13:05:58;;;;;;;2.00;1.30;;;;;;;;;;4976109;28;20431;-72
2023/11/06 13:08:26;;;;;;;1.73;0.97;;;;;;;;;;4975986;28;20905;-72
2023/11/06 13:10:52;;;;;;;1.47;0.90;;;;;;;;;;4975803;28;20447;-72
2023/11/06 13:13:18;;;;;;;0.93;0.90;;;;;;;;;;4976067;28;20408;-72
2023/11/06 13:15:47;;;;;;;4.93;1.30;;;;;;;;;;4976191;28;20558;-71
2023/11/06 13:18:12;;;;;;;3.70;1.63;;;;;;;;;;4976248;28;20411;-71
2023/11/06 13:20:45;;;;;;;1.50;1.10;;;;;;;;;;4991058;28;20419;-70
2023/11/06 13:23:16;;;;;;;6.30;0.97;;;;;;;;;;4975891;28;20470;-71
2023/11/06 13:25:42;;;;;;;1.43;0.90;;;;;;;;;;4975783;28;20872;-71
2023/11/06 13:28:08;;;;;;;1.47;1.10;;;;;;;;;;4975650;28;20799;-71
2023/11/06 13:30:34;;;;;;;0.80;0.80;;;;;;;;;;4976127;28;20439;-71
2023/11/06 13:33:04;;;;;;;3.37;1.57;;;;;;;;;;4975208;28;20828;-71
2023/11/06 13:35:30;;;;;;;0.90;0.80;;;;;;;;;;4975329;28;20449;-71
2023/11/06 13:37:56;;;;;;;2.10;0.90;;;;;;;;;;4975543;28;20688;-71
2023/11/06 13:40:31;;;;;;;0.80;0.73;;;;;;;;;;4975413;28;20408;-71
2023/11/06 13:43:01;;;;;;;1.40;1.00;;;;;;;;;;4975197;28;20408;-72
2023/11/06 13:45:27;;;;;;;3.30;1.10;;;;;;;;;;4975221;28;20783;-71
2023/11/06 13:48:03;;;;;;;1.00;0.87;;;;;;;;;;4990116;28;20462;-71
2023/11/06 13:50:32;;;;;;;1.07;0.97;;;;;;;;;;4975244;28;20419;-72
2023/11/06 13:53:09;;;;;;;6.53;1.20;;;;;;;;;;4975010;28;20529;-71
2023/11/06 13:55:37;;;;;;;0.93;0.80;;;;;;;;;;4975071;28;20438;-71
2023/11/06 13:58:04;;;;;;;1.00;0.83;;;;;;;;;;4975239;28;20891;-71
2023/11/06 14:00:39;;;;;;;1.13;0.70;;;;;;;;;;4975180;28;20471;-71
2023/11/06 14:03:05;;;;;;;1.37;1.00;;;;;;;;;;4974868;28;20418;-71
2023/11/06 14:05:33;;;;;;;1.03;0.93;;;;;;;;;;4974779;28;20432;-71
2023/11/06 14:07:59;;;;;;;1.57;0.83;;;;;;;;;;4974544;28;20852;-71
2023/11/06 14:10:31;;;;;;;1.00;0.90;;;;;;;;;;4974413;28;20412;-71
2023/11/06 14:12:57;;;;;;;3.63;1.10;;;;;;;;;;4974804;28;20467;-70
2023/11/06 14:15:24;;;;;;;2.07;1.20;;;;;;;;;;4989607;28;20455;-71
2023/11/06 14:17:53;;;;;;;7.40;1.40;;;;;;;;;;4974772;28;20914;-70
2023/11/06 14:20:20;;;;;;;1.90;1.30;;;;;;;;;;4974588;28;20475;-71
2023/11/06 14:22:46;;;;;;;2.90;1.10;;;;;;;;;;4974638;28;20419;-70
2023/11/06 14:25:12;;;;;;;2.30;1.00;;;;;;;;;;4974496;28;20420;-70
2023/11/06 14:27:39;;;;;;;1.50;1.07;;;;;;;;;;4974626;28;20419;-71
2023/11/06 14:30:06;;;;;;;2.57;1.60;;;;;;;;;;4974514;28;20500;-71
2023/11/06 14:32:32;;;;;;;2.77;1.97;;;;;;;;;;4974401;28;20471;-71
2023/11/06 14:34:59;;;;;;;1.33;1.00;;;;;;;;;;4974691;28;20542;-70
2023/11/06 14:37:25;;;;;;;2.20;1.40;;;;;;;;;;4974653;28;20436;-70
2023/11/06 14:39:51;;;;;;;1.60;1.30;;;;;;;;;;4974874;28;20415;-71
2023/11/06 14:42:17;;;;;;;4.23;1.80;;;;;;;;;;4974032;28;20428;-72
2023/11/06 14:44:43;;;;;;;5.73;1.60;;;;;;;;;;4974068;28;20412;-72
2023/11/06 14:47:09;;;;;;;3.80;1.20;;;;;;;;;;4974037;28;20439;-72
2023/11/06 14:49:36;;;;;;;2.37;1.30;;;;;;;;;;4973996;28;20450;-71
2023/11/06 14:52:02;;;;;;;1.20;1.10;;;;;;;;;;4973854;28;20547;-72
2023/11/06 14:54:29;;;;;;;4.27;1.33;;;;;;;;;;4974757;28;20887;-72
2023/11/06 14:56:58;;;;;;;2.13;1.27;;;;;;;;;;4973842;28;20453;-71
2023/11/06 14:59:24;;;;;;;3.80;1.23;;;;;;;;;;4973816;28;20415;-71
2023/11/06 15:01:50;;;;;;;2.80;1.77;;;;;;;;;;4973693;28;20415;-72
2023/11/06 15:04:19;;;;;;;1.23;1.07;;;;;;;;;;4973578;28;20416;-71
2023/11/06 15:06:45;;;;;;;2.20;1.50;;;;;;;;;;4973677;28;20946;-71
2023/11/06 15:09:11;;;;;;;1.67;1.27;;;;;;;;;;4973414;28;20420;-71
2023/11/06 15:11:37;;;;;;;6.23;1.30;;;;;;;;;;4973310;28;20470;-72
2023/11/06 15:14:05;;;;;;;1.70;1.10;;;;;;;;;;4973664;28;20887;-71
2023/11/06 15:16:32;;;;;;;2.97;1.23;;;;;;;;;;4973483;28;20454;-71
2023/11/06 15:18:59;;;;;;;2.30;0.90;;;;;;;;;;4973321;28;20550;-70
2023/11/06 15:21:28;;;;;;;1.20;1.03;;;;;;;;;;4972858;28;20494;-70
2023/11/06 15:23:55;;;;;;;2.60;0.90;;;;;;;;;;4973272;28;20444;-70
2023/11/06 15:26:21;;;;;;;1.90;1.00;;;;;;;;;;4973414;28;20498;-70
2023/11/06 15:28:47;;;;;;;1.00;0.87;;;;;;;;;;4973468;28;20408;-70
2023/11/06 15:31:13;;;;;;;2.37;1.20;;;;;;;;;;4973412;28;20826;-70
2023/11/06 15:33:40;;;;;;;2.13;1.07;;;;;;;;;;4972996;28;20408;-70
2023/11/06 15:36:06;;;;;;;1.37;1.30;;;;;;;;;;4973136;28;20446;-71
2023/11/06 15:38:33;;;;;;;0.93;0.90;;;;;;;;;;4973175;28;20416;-71
2023/11/06 15:40:59;;;;;;;1.77;1.13;;;;;;;;;;4973096;28;20404;-71
2023/11/06 15:43:26;;;;;;;4.80;1.30;;;;;;;;;;4973064;28;20753;-70
2023/11/06 15:45:52;;;;;;;1.23;1.10;;;;;;;;;;4973228;28;20839;-69
2023/11/06 15:48:18;;;;;;;2.37;1.23;;;;;;;;;;4973309;28;20523;-71
2023/11/06 15:50:44;;;;;;;1.07;1.00;;;;;;;;;;4987905;28;20470;-70
2023/11/06 15:53:11;;;;;;;1.87;1.20;;;;;;;;;;4973107;28;20463;-70
2023/11/06 15:55:44;;;;;;;2.40;1.13;;;;;;;;;;4973111;28;20438;-71
2023/11/06 15:58:14;;;;;;;3.03;1.63;;;;;;;;;;4972978;28;20411;-71
2023/11/06 16:00:41;;;;;;;1.53;1.30;;;;;;;;;;4972834;28;20412;-70
2023/11/06 16:03:07;;;;;;;2.27;1.60;;;;;;;;;;4972594;28;20474;-71
2023/11/06 16:05:33;;;;;;;8.77;2.27;;;;;;;;;;4972744;28;20845;-71
2023/11/06 16:07:59;;;;;;;2.40;1.53;;;;;;;;;;4982888;28;20826;-70
2023/11/06 16:10:25;;;;;;;1.33;1.20;;;;;;;;;;4989834;28;20430;-69
2023/11/06 16:12:53;;;;;;;2.00;1.20;;;;;;;;;;4990505;28;20473;-69
2023/11/06 16:15:19;;;;;;;3.27;1.53;;;;;;;;;;4956339;28;20455;-70
2023/11/06 16:17:45;;;;;;;2.83;1.53;;;;;;;;;;4992353;28;20506;-70
2023/11/06 16:20:11;;;;;;;1.73;1.43;;;;;;;;;;4992211;28;20694;-71
2023/11/06 16:22:37;;;;;;;3.90;1.60;;;;;;;;;;4991213;28;20473;-69
2023/11/06 16:25:03;;;;;;;2.07;1.80;;;;;;;;;;4972510;28;20924;-70
2023/11/06 16:27:29;;;;;;;2.00;1.67;;;;;;;;;;4989515;28;20423;-70
2023/11/06 16:29:55;;;;;;;4.27;1.60;;;;;;;;;;4991861;28;20824;-70
2023/11/06 16:32:21;;;;;;;2.00;1.77;;;;;;;;;;4993140;28;20470;-70
2023/11/06 16:34:48;;;;;;;3.30;2.00;;;;;;;;;;4996540;28;20406;-69
2023/11/06 16:37:14;;;;;;;6.07;1.70;;;;;;;;;;4996128;28;20500;-69
2023/11/06 16:39:40;;;;;;;2.40;1.83;;;;;;;;;;4995312;28;20915;-70
2023/11/06 16:42:07;;;;;;;0.87;0.83;;;;;;;;;;4995831;28;20807;-70
2023/11/06 16:44:33;;;;;;;9.23;1.30;;;;;;;;;;4979648;28;20475;-70
2023/11/06 16:46:59;;;;;;;8.67;1.20;;;;;;;;;;4977903;28;20902;-71
2023/11/06 16:49:25;;;;;;;3.87;1.40;;;;;;;;;;4995853;28;20917;-71
2023/11/06 16:51:54;;;;;;;4.10;1.47;;;;;;;;;;4992064;28;20836;-70
2023/11/06 16:54:22;;;;;;;1.50;1.40;;;;;;;;;;4985738;28;20422;-70
2023/11/06 16:56:48;;;;;;;3.80;1.33;;;;;;;;;;4995597;28;20510;-71
2023/11/06 16:59:17;;;;;;;3.00;1.30;;;;;;;;;;4979046;28;20451;-71
2023/11/06 17:01:43;;;;;;;2.93;1.90;;;;;;;;;;4977573;28;20419;-69
2023/11/06 17:04:09;;;;;;;3.27;1.50;;;;;;;;;;4994131;28;20430;-69
2023/11/06 17:06:35;;;;;;;2.00;1.80;;;;;;;;;;4993823;28;20870;-70
2023/11/06 17:09:02;;;;;;;5.90;1.80;;;;;;;;;;4995829;28;20439;-68
2023/11/06 17:11:28;;;;;;;1.47;1.20;;;;;;;;;;4978825;28;20459;-70
2023/11/06 17:13:54;;;;;;;3.70;2.40;;;;;;;;;;4975754;28;21021;-72
2023/11/06 17:16:21;;;;;;;2.30;1.80;;;;;;;;;;4975708;28;20444;-72
2023/11/06 17:18:49;;;;;;;2.07;1.67;;;;;;;;;;4975814;28;20423;-70
2023/11/06 17:21:15;;;;;;;3.03;1.97;;;;;;;;;;4975699;28;20964;-70
2023/11/06 17:23:41;;;;;;;4.70;1.97;;;;;;;;;;4975431;28;20418;-69
2023/11/06 17:26:08;;;;;;;2.70;1.80;;;;;;;;;;4975853;28;20823;-69
2023/11/06 17:28:34;;;;;;;2.50;1.90;;;;;;;;;;4975373;28;20407;-69
2023/11/06 17:31:00;;;;;;;4.93;2.23;;;;;;;;;;4975912;28;20408;-69
2023/11/06 17:33:26;;;;;;;1.20;1.13;;;;;;;;;;4975081;28;20400;-70
2023/11/06 17:35:52;;;;;;;4.67;1.80;;;;;;;;;;4975514;28;20437;-70
2023/11/06 17:38:18;;;;;;;1.70;1.60;;;;;;;;;;4975511;28;20408;-69
2023/11/06 17:40:44;;;;;;;1.73;1.20;;;;;;;;;;4976490;28;20523;-70
2023/11/06 17:43:10;;;;;;;2.67;1.60;;;;;;;;;;4974746;28;20824;-70
2023/11/06 17:45:37;;;;;;;1.60;1.50;;;;;;;;;;4975063;28;20522;-69
2023/11/06 17:48:04;;;;;;;5.83;1.50;;;;;;;;;;4975181;28;20919;-69
2023/11/06 17:50:30;;;;;;;2.77;1.70;;;;;;;;;;4974966;28;20458;-70
2023/11/06 17:52:56;;;;;;;2.20;1.17;;;;;;;;;;4975046;28;20883;-70
2023/11/06 17:55:23;;;;;;;3.47;1.73;;;;;;;;;;4975097;28;20435;-70
2023/11/06 17:57:50;;;;;;;2.23;1.70;;;;;;;;;;4986497;28;20458;-70
2023/11/06 18:00:16;;;;;;;2.20;1.43;;;;;;;;;;4993985;28;20783;-70
2023/11/06 18:02:42;;;;;;;1.40;1.30;;;;;;;;;;4994277;28;20407;-69
2023/11/06 18:05:09;;;;;;;2.27;1.50;;;;;;;;;;4993934;28;20514;-70
2023/11/06 18:07:35;;;;;;;1.40;1.20;;;;;;;;;;4990759;28;20494;-70
2023/11/06 18:10:06;;;;;;;1.70;1.60;;;;;;;;;;4975071;28;20416;-69
2023/11/06 18:12:33;;;;;;;2.83;1.33;;;;;;;;;;4974526;28;20467;-70
2023/11/06 18:14:59;;;;;;;2.20;1.40;;;;;;;;;;4974393;28;20416;-70
2023/11/06 18:17:25;;;;;;;2.40;1.70;;;;;;;;;;4957574;28;20942;-69
2023/11/06 18:19:51;;;;;;;3.90;1.60;;;;;;;;;;4974410;28;20486;-69
2023/11/06 18:22:18;;;;;;;3.97;1.93;;;;;;;;;;4974089;28;20416;-68
2023/11/06 18:24:44;;;;;;;3.13;1.80;;;;;;;;;;4957472;28;20926;-68
2023/11/06 18:27:10;;;;;;;3.23;2.10;;;;;;;;;;4974306;28;20435;-68
2023/11/06 18:29:36;;;;;;;3.03;1.60;;;;;;;;;;4957043;28;20419;-68
2023/11/06 18:32:02;;;;;;;3.73;1.60;;;;;;;;;;4974224;28;20467;-68
2023/11/06 18:34:28;;;;;;;3.27;1.60;;;;;;;;;;4974531;28;20420;-69
2023/11/06 18:36:54;;;;;;;5.60;1.97;;;;;;;;;;4956662;28;20432;-68
2023/11/06 18:39:20;;;;;;;4.63;1.70;;;;;;;;;;4988355;28;20430;-69
2023/11/06 18:41:46;;;;;;;2.33;1.50;;;;;;;;;;4991925;28;20427;-69
2023/11/06 18:44:12;;;;;;;2.83;1.73;;;;;;;;;;4958865;28;20428;-69
2023/11/06 18:46:38;;;;;;;3.10;1.93;;;;;;;;;;4974116;28;20457;-68
2023/11/06 18:49:05;;;;;;;1.50;1.40;;;;;;;;;;4990510;28;20933;-69
2023/11/06 18:51:31;;;;;;;2.27;1.50;;;;;;;;;;4993409;28;20550;-69
2023/11/06 18:53:58;;;;;;;1.57;1.33;;;;;;;;;;4986873;28;20957;-69
2023/11/06 18:56:24;;;;;;;4.20;1.80;;;;;;;;;;4986190;28;20542;-68
2023/11/06 18:58:50;;;;;;;3.57;1.80;;;;;;;;;;4992677;28;20450;-68
2023/11/06 19:01:16;;;;;;;7.93;4.30;;;;;;;;;;4993876;28;20454;-69
2023/11/06 19:03:44;;;;;;;3.13;2.00;;;;;;;;;;4995260;28;20491;-69
2023/11/06 19:06:10;;;;;;;5.93;3.10;;;;;;;;;;5001678;28;20442;-69
2023/11/06 19:08:37;;;;;;;6.50;3.50;;;;;;;;;;4984816;28;20494;-69
2023/11/06 19:11:03;;;;;;;6.23;2.97;;;;;;;;;;4997935;28;20446;-69
2023/11/06 19:13:29;;;;;;;9.77;5.47;;;;;;;;;;4987032;28;20550;-70
2023/11/06 19:15:56;;;;;;;10.60;4.70;;;;;;;;;;4997643;28;20968;-70
2023/11/06 19:18:22;;;;;;;7.90;3.73;;;;;;;;;;4995584;28;20530;-69
2023/11/06 19:20:48;;;;;;;4.27;2.90;;;;;;;;;;4995730;28;20477;-70
2023/11/06 19:23:14;;;;;;;4.67;3.50;;;;;;;;;;4990698;28;20412;-69
2023/11/06 19:25:40;;;;;;;10.10;4.10;;;;;;;;;;4994587;28;20940;-69
2023/11/06 19:28:06;;;;;;;7.13;3.37;;;;;;;;;;4987402;28;20423;-69
2023/11/06 19:30:32;;;;;;;9.80;5.00;;;;;;;;;;4991227;28;20411;-70
2023/11/06 19:32:59;;;;;;;4.00;2.60;;;;;;;;;;4996201;28;20474;-70
2023/11/06 19:35:25;;;;;;;4.10;2.03;;;;;;;;;;4994717;28;20439;-70
2023/11/06 19:37:52;;;;;;;2.60;1.60;;;;;;;;;;4988882;28;20431;-70
2023/11/06 19:40:19;;;;;;;4.80;2.00;;;;;;;;;;4998081;28;20955;-71
2023/11/06 19:42:45;;;;;;;7.40;4.00;;;;;;;;;;4990376;28;20422;-71
2023/11/06 19:45:13;;;;;;;12.37;5.20;;;;;;;;;;4990067;28;20519;-69
2023/11/06 19:47:39;;;;;;;8.43;3.97;;;;;;;;;;4981033;28;20446;-70
2023/11/06 19:50:06;;;;;;;6.07;3.27;;;;;;;;;;4985067;28;20429;-70
2023/11/06 19:52:33;;;;;;;3.53;1.70;;;;;;;;;;4973781;28;20505;-70
2023/11/06 19:54:59;;;;;;;1.90;1.70;;;;;;;;;;4991040;28;20502;-70
2023/11/06 19:57:25;;;;;;;3.13;2.33;;;;;;;;;;4990143;28;20985;-71
2023/11/06 19:59:51;;;;;;;3.03;1.90;;;;;;;;;;4996925;28;20986;-70
2023/11/06 20:02:17;;;;;;;2.77;1.70;;;;;;;;;;4976966;28;20544;-70
2023/11/06 20:04:43;;;;;;;3.10;1.80;;;;;;;;;;4973084;28;20431;-70
2023/11/06 20:07:09;;;;;;;5.93;2.40;;;;;;;;;;4988648;28;20443;-70
2023/11/06 20:09:36;;;;;;;6.93;2.07;;;;;;;;;;4997113;28;20499;-70
2023/11/06 20:12:03;;;;;;;10.80;2.77;;;;;;;;;;4972701;28;20917;-71
2023/11/06 20:14:29;;;;;;;9.00;3.13;;;;;;;;;;4983754;28;20886;-70
2023/11/06 20:16:55;;;;;;;6.70;3.03;;;;;;;;;;4992106;28;20481;-70
2023/11/06 20:19:21;;;;;;;9.07;2.57;;;;;;;;;;4991084;28;20481;-71
2023/11/06 20:21:47;;;;;;;4.97;2.40;;;;;;;;;;4972372;28;20432;-71
2023/11/06 20:24:13;;;;;;;5.87;2.70;;;;;;;;;;4997754;28;20436;-71
2023/11/06 20:26:39;;;;;;;10.70;3.13;;;;;;;;;;4992031;28;21005;-70
2023/11/06 20:29:05;;;;;;;6.83;3.10;;;;;;;;;;4974755;28;20434;-70
2023/11/06 20:31:32;;;;;;;5.53;3.20;;;;;;;;;;4991696;28;20494;-70
2023/11/06 20:33:58;;;;;;;9.20;3.40;;;;;;;;;;4992049;28;20537;-71
2023/11/06 20:36:24;;;;;;;8.70;2.60;;;;;;;;;;4991655;28;20454;-71
2023/11/06 20:38:51;;;;;;;8.50;3.33;;;;;;;;;;4991042;28;20934;-71
2023/11/06 20:41:17;;;;;;;7.43;3.10;;;;;;;;;;4991710;28;20790;-71
2023/11/06 20:43:44;;;;;;;7.33;3.50;;;;;;;;;;4991502;28;20426;-71